sensor_id;sensor_type;location;lat;lon;timestamp;temperature;humidity
52565;DHT22;38460;53.106;7.004;2023-03-24T00:00:00;11.10;99.90
52565;DHT22;38460;53.106;7.004;2023-03-24T00:02:26;11.10;99.90
52565;DHT22;38460;53.106;7.004;2023-03-24T00:04:53;11.00;99.90
52565;DHT22;38460;53.106;7.004;2023-03-24T00:07:23;11.00;99.90
52565;DHT22;38460;53.106;7.004;2023-03-24T00:09:49;11.10;99.90
52565;DHT22;38460;53.106;7.004;2023-03-24T00:12:15;11.10;99.90
52565;DHT22;38460;53.106;7.004;2023-03-24T00:14:44;11.10;99.90
52565;DHT22;38460;53.106;7.004;2023-03-24T00:17:13;11.10;99.90
52565;DHT22;38460;53.106;7.004;2023-03-24T00:19:42;11.10;99.90
52565;DHT22;38460;53.106;7.004;2023-03-24T00:22:10;11.00;99.90
52565;DHT22;38460;53.106;7.004;2023-03-24T00:24:40;11.10;99.90
52565;DHT22;38460;53.106;7.004;2023-03-24T00:27:06;11.00;99.90
52565;DHT22;38460;53.106;7.004;2023-03-24T00:29:32;11.10;99.90
52565;DHT22;38460;53.106;7.004;2023-03-24T00:32:00;11.10;99.90
52565;DHT22;38460;53.106;7.004;2023-03-24T00:34:26;11.10;99.90
52565;DHT22;38460;53.106;7.004;2023-03-24T00:36:52;11.00;99.90
52565;DHT22;38460;53.106;7.004;2023-03-24T00:39:19;11.00;99.90
52565;DHT22;38460;53.106;7.004;2023-03-24T00:41:46;11.00;99.90
52565;DHT22;38460;53.106;7.004;2023-03-24T00:44:14;11.00;99.90
52565;DHT22;38460;53.106;7.004;2023-03-24T00:46:47;11.00;99.90
52565;DHT22;38460;53.106;7.004;2023-03-24T00:49:21;11.00;99.90
52565;DHT22;38460;53.106;7.004;2023-03-24T00:52:17;11.00;99.90
52565;DHT22;38460;53.106;7.004;2023-03-24T00:54:46;11.00;99.90
52565;DHT22;38460;53.106;7.004;2023-03-24T00:57:13;11.00;99.90
52565;DHT22;38460;53.106;7.004;2023-03-24T00:59:47;11.00;99.90
52565;DHT22;38460;53.106;7.004;2023-03-24T01:02:17;11.00;99.90
52565;DHT22;38460;53.106;7.004;2023-03-24T01:04:57;11.00;99.90
52565;DHT22;38460;53.106;7.004;2023-03-24T01:07:25;11.00;99.90
52565;DHT22;38460;53.106;7.004;2023-03-24T01:09:52;11.00;99.90
52565;DHT22;38460;53.106;7.004;2023-03-24T01:12:34;10.90;99.90
52565;DHT22;38460;53.106;7.004;2023-03-24T01:15:05;11.00;99.90
52565;DHT22;38460;53.106;7.004;2023-03-24T01:17:31;11.00;99.90
52565;DHT22;38460;53.106;7.004;2023-03-24T01:19:59;11.00;99.90
52565;DHT22;38460;53.106;7.004;2023-03-24T01:22:29;10.90;99.90
52565;DHT22;38460;53.106;7.004;2023-03-24T01:24:55;10.90;99.90
52565;DHT22;38460;53.106;7.004;2023-03-24T01:27:21;10.90;99.90
52565;DHT22;38460;53.106;7.004;2023-03-24T01:29:48;10.90;99.90
52565;DHT22;38460;53.106;7.004;2023-03-24T01:32:14;10.90;99.90
52565;DHT22;38460;53.106;7.004;2023-03-24T01:34:39;10.90;99.90
52565;DHT22;38460;53.106;7.004;2023-03-24T01:37:05;10.90;99.90
52565;DHT22;38460;53.106;7.004;2023-03-24T01:39:31;10.90;99.90
52565;DHT22;38460;53.106;7.004;2023-03-24T01:41:57;10.90;99.90
52565;DHT22;38460;53.106;7.004;2023-03-24T01:46:49;10.90;99.90
52565;DHT22;38460;53.106;7.004;2023-03-24T01:49:15;10.90;99.90
52565;DHT22;38460;53.106;7.004;2023-03-24T01:51:46;10.90;99.90
52565;DHT22;38460;53.106;7.004;2023-03-24T01:54:23;10.90;99.90
52565;DHT22;38460;53.106;7.004;2023-03-24T01:56:58;10.90;99.90
52565;DHT22;38460;53.106;7.004;2023-03-24T01:59:27;10.90;99.90
52565;DHT22;38460;53.106;7.004;2023-03-24T02:01:54;10.90;99.90
52565;DHT22;38460;53.106;7.004;2023-03-24T02:04:29;11.00;99.90
52565;DHT22;38460;53.106;7.004;2023-03-24T02:06:58;10.90;99.90
52565;DHT22;38460;53.106;7.004;2023-03-24T02:09:26;11.00;99.90
52565;DHT22;38460;53.106;7.004;2023-03-24T02:11:52;10.90;99.90
52565;DHT22;38460;53.106;7.004;2023-03-24T02:14:18;10.90;99.90
52565;DHT22;38460;53.106;7.004;2023-03-24T02:16:49;10.90;99.90
52565;DHT22;38460;53.106;7.004;2023-03-24T02:27:59;11.00;99.90
52565;DHT22;38460;53.106;7.004;2023-03-24T02:30:54;11.00;99.90
52565;DHT22;38460;53.106;7.004;2023-03-24T02:33:53;11.00;99.90
52565;DHT22;38460;53.106;7.004;2023-03-24T02:44:34;11.10;99.90
52565;DHT22;38460;53.106;7.004;2023-03-24T02:54:54;11.10;99.90
52565;DHT22;38460;53.106;7.004;2023-03-24T02:57:35;11.10;99.90
52565;DHT22;38460;53.106;7.004;2023-03-24T03:02:45;11.10;99.90
52565;DHT22;38460;53.106;7.004;2023-03-24T03:05:25;11.20;99.90
52565;DHT22;38460;53.106;7.004;2023-03-24T03:07:53;11.10;99.90
52565;DHT22;38460;53.106;7.004;2023-03-24T03:10:43;11.10;99.90
52565;DHT22;38460;53.106;7.004;2023-03-24T03:13:33;11.20;99.90
52565;DHT22;38460;53.106;7.004;2023-03-24T03:16:08;11.20;99.90
52565;DHT22;38460;53.106;7.004;2023-03-24T03:18:39;11.10;99.90
52565;DHT22;38460;53.106;7.004;2023-03-24T03:21:12;11.20;99.90
52565;DHT22;38460;53.106;7.004;2023-03-24T03:24:07;11.20;99.90
52565;DHT22;38460;53.106;7.004;2023-03-24T03:26:33;11.20;99.90
52565;DHT22;38460;53.106;7.004;2023-03-24T03:29:04;11.20;99.90
52565;DHT22;38460;53.106;7.004;2023-03-24T03:31:40;11.20;99.90
52565;DHT22;38460;53.106;7.004;2023-03-24T03:39:59;11.20;99.90
52565;DHT22;38460;53.106;7.004;2023-03-24T03:42:26;11.20;99.90
52565;DHT22;38460;53.106;7.004;2023-03-24T03:44:52;11.20;99.90
52565;DHT22;38460;53.106;7.004;2023-03-24T03:47:18;11.20;99.90
52565;DHT22;38460;53.106;7.004;2023-03-24T03:49:47;11.30;99.90
52565;DHT22;38460;53.106;7.004;2023-03-24T03:52:13;11.30;99.90
52565;DHT22;38460;53.106;7.004;2023-03-24T03:54:40;11.30;99.90
52565;DHT22;38460;53.106;7.004;2023-03-24T03:57:09;11.30;99.90
52565;DHT22;38460;53.106;7.004;2023-03-24T03:59:37;11.30;99.90
52565;DHT22;38460;53.106;7.004;2023-03-24T04:02:41;11.30;99.90
52565;DHT22;38460;53.106;7.004;2023-03-24T04:08:11;11.30;99.90
52565;DHT22;38460;53.106;7.004;2023-03-24T04:35:01;10.90;99.90
52565;DHT22;38460;53.106;7.004;2023-03-24T04:37:31;10.80;99.90
52565;DHT22;38460;53.106;7.004;2023-03-24T04:39:59;10.80;99.90
52565;DHT22;38460;53.106;7.004;2023-03-24T04:42:33;10.70;99.90
52565;DHT22;38460;53.106;7.004;2023-03-24T04:45:02;10.70;99.90
52565;DHT22;38460;53.106;7.004;2023-03-24T04:47:31;10.70;99.90
52565;DHT22;38460;53.106;7.004;2023-03-24T04:50:03;10.60;99.90
52565;DHT22;38460;53.106;7.004;2023-03-24T04:52:30;10.60;99.90
52565;DHT22;38460;53.106;7.004;2023-03-24T04:54:56;10.60;99.90
52565;DHT22;38460;53.106;7.004;2023-03-24T04:57:22;10.50;99.90
52565;DHT22;38460;53.106;7.004;2023-03-24T04:59:48;10.50;99.90
52565;DHT22;38460;53.106;7.004;2023-03-24T05:02:13;10.50;99.90
52565;DHT22;38460;53.106;7.004;2023-03-24T05:04:40;10.40;99.90
52565;DHT22;38460;53.106;7.004;2023-03-24T05:07:05;10.40;99.90
52565;DHT22;38460;53.106;7.004;2023-03-24T05:09:32;10.40;99.90
52565;DHT22;38460;53.106;7.004;2023-03-24T05:11:57;10.30;99.90
52565;DHT22;38460;53.106;7.004;2023-03-24T05:14:23;10.30;99.90
52565;DHT22;38460;53.106;7.004;2023-03-24T05:16:49;10.30;99.90
52565;DHT22;38460;53.106;7.004;2023-03-24T05:19:15;10.20;99.90
52565;DHT22;38460;53.106;7.004;2023-03-24T05:21:41;10.20;99.90
52565;DHT22;38460;53.106;7.004;2023-03-24T05:24:07;10.20;99.90
52565;DHT22;38460;53.106;7.004;2023-03-24T05:26:33;10.10;99.90
52565;DHT22;38460;53.106;7.004;2023-03-24T05:28:59;10.10;99.90
52565;DHT22;38460;53.106;7.004;2023-03-24T05:31:25;10.10;99.90
52565;DHT22;38460;53.106;7.004;2023-03-24T05:33:51;10.00;99.90
52565;DHT22;38460;53.106;7.004;2023-03-24T05:36:17;10.00;99.90
52565;DHT22;38460;53.106;7.004;2023-03-24T05:38:43;10.00;99.90
52565;DHT22;38460;53.106;7.004;2023-03-24T05:41:08;10.00;99.90
52565;DHT22;38460;53.106;7.004;2023-03-24T05:43:34;9.90;99.90
52565;DHT22;38460;53.106;7.004;2023-03-24T05:46:00;9.90;99.90
52565;DHT22;38460;53.106;7.004;2023-03-24T05:48:26;9.80;99.90
52565;DHT22;38460;53.106;7.004;2023-03-24T05:50:52;9.80;99.90
52565;DHT22;38460;53.106;7.004;2023-03-24T05:53:18;9.80;99.90
52565;DHT22;38460;53.106;7.004;2023-03-24T05:55:44;9.80;99.90
52565;DHT22;38460;53.106;7.004;2023-03-24T05:58:10;9.80;99.90
52565;DHT22;38460;53.106;7.004;2023-03-24T06:00:36;9.80;99.90
52565;DHT22;38460;53.106;7.004;2023-03-24T06:03:02;9.70;99.90
52565;DHT22;38460;53.106;7.004;2023-03-24T06:05:28;9.70;99.90
52565;DHT22;38460;53.106;7.004;2023-03-24T06:07:54;9.70;99.90
52565;DHT22;38460;53.106;7.004;2023-03-24T06:10:24;9.70;99.90
52565;DHT22;38460;53.106;7.004;2023-03-24T06:12:51;9.70;99.90
52565;DHT22;38460;53.106;7.004;2023-03-24T06:15:17;9.70;99.90
52565;DHT22;38460;53.106;7.004;2023-03-24T06:17:44;9.70;99.90
52565;DHT22;38460;53.106;7.004;2023-03-24T06:20:11;9.70;99.90
52565;DHT22;38460;53.106;7.004;2023-03-24T06:22:42;9.80;99.90
52565;DHT22;38460;53.106;7.004;2023-03-24T06:25:13;9.70;99.90
52565;DHT22;38460;53.106;7.004;2023-03-24T06:27:43;9.80;99.90
52565;DHT22;38460;53.106;7.004;2023-03-24T06:30:16;9.70;99.90
52565;DHT22;38460;53.106;7.004;2023-03-24T06:32:43;9.80;99.90
52565;DHT22;38460;53.106;7.004;2023-03-24T06:35:12;9.80;99.90
52565;DHT22;38460;53.106;7.004;2023-03-24T06:37:39;9.80;99.90
52565;DHT22;38460;53.106;7.004;2023-03-24T06:40:05;9.80;99.90
52565;DHT22;38460;53.106;7.004;2023-03-24T06:42:31;9.80;99.90
52565;DHT22;38460;53.106;7.004;2023-03-24T06:44:57;9.80;99.90
52565;DHT22;38460;53.106;7.004;2023-03-24T06:47:23;9.80;99.90
52565;DHT22;38460;53.106;7.004;2023-03-24T06:49:48;9.80;99.90
52565;DHT22;38460;53.106;7.004;2023-03-24T06:52:14;9.80;99.90
52565;DHT22;38460;53.106;7.004;2023-03-24T06:54:40;9.80;99.90
52565;DHT22;38460;53.106;7.004;2023-03-24T06:57:06;9.80;99.90
52565;DHT22;38460;53.106;7.004;2023-03-24T06:59:32;9.80;99.90
52565;DHT22;38460;53.106;7.004;2023-03-24T07:01:58;9.80;99.90
52565;DHT22;38460;53.106;7.004;2023-03-24T07:04:24;9.80;99.90
52565;DHT22;38460;53.106;7.004;2023-03-24T07:06:50;9.90;99.90
52565;DHT22;38460;53.106;7.004;2023-03-24T07:09:16;9.90;99.90
52565;DHT22;38460;53.106;7.004;2023-03-24T07:11:43;9.90;99.90
52565;DHT22;38460;53.106;7.004;2023-03-24T07:14:09;9.90;99.90
52565;DHT22;38460;53.106;7.004;2023-03-24T07:16:35;9.90;99.90
52565;DHT22;38460;53.106;7.004;2023-03-24T07:19:01;9.90;99.90
52565;DHT22;38460;53.106;7.004;2023-03-24T07:21:27;9.90;99.90
52565;DHT22;38460;53.106;7.004;2023-03-24T07:23:53;9.90;99.90
52565;DHT22;38460;53.106;7.004;2023-03-24T07:26:18;9.90;99.90
52565;DHT22;38460;53.106;7.004;2023-03-24T07:28:45;10.00;99.90
52565;DHT22;38460;53.106;7.004;2023-03-24T07:31:10;10.00;99.90
52565;DHT22;38460;53.106;7.004;2023-03-24T07:33:37;10.00;99.90
52565;DHT22;38460;53.106;7.004;2023-03-24T07:36:03;10.00;99.90
52565;DHT22;38460;53.106;7.004;2023-03-24T07:38:29;10.00;99.90
52565;DHT22;38460;53.106;7.004;2023-03-24T07:40:57;10.00;99.90
52565;DHT22;38460;53.106;7.004;2023-03-24T07:43:24;10.10;99.90
52565;DHT22;38460;53.106;7.004;2023-03-24T07:45:50;10.10;99.90
52565;DHT22;38460;53.106;7.004;2023-03-24T07:48:16;10.10;99.90
52565;DHT22;38460;53.106;7.004;2023-03-24T07:50:41;10.10;99.90
52565;DHT22;38460;53.106;7.004;2023-03-24T07:53:07;10.10;99.90
52565;DHT22;38460;53.106;7.004;2023-03-24T07:55:36;10.20;99.90
52565;DHT22;38460;53.106;7.004;2023-03-24T07:58:02;10.20;99.90
52565;DHT22;38460;53.106;7.004;2023-03-24T08:00:28;10.30;99.90
52565;DHT22;38460;53.106;7.004;2023-03-24T08:02:54;10.30;99.90
52565;DHT22;38460;53.106;7.004;2023-03-24T08:05:21;10.30;99.90
52565;DHT22;38460;53.106;7.004;2023-03-24T08:07:50;10.30;99.90
52565;DHT22;38460;53.106;7.004;2023-03-24T08:10:20;10.30;99.90
52565;DHT22;38460;53.106;7.004;2023-03-24T08:12:47;10.30;99.90
52565;DHT22;38460;53.106;7.004;2023-03-24T08:15:13;10.40;99.90
52565;DHT22;38460;53.106;7.004;2023-03-24T08:17:40;10.40;99.90
52565;DHT22;38460;53.106;7.004;2023-03-24T08:20:08;10.40;99.90
52565;DHT22;38460;53.106;7.004;2023-03-24T08:22:36;10.50;99.90
52565;DHT22;38460;53.106;7.004;2023-03-24T08:25:04;10.50;99.90
52565;DHT22;38460;53.106;7.004;2023-03-24T08:27:31;10.50;99.90
52565;DHT22;38460;53.106;7.004;2023-03-24T08:29:57;10.50;99.90
52565;DHT22;38460;53.106;7.004;2023-03-24T08:32:23;10.50;99.90
52565;DHT22;38460;53.106;7.004;2023-03-24T08:34:48;10.60;99.90
52565;DHT22;38460;53.106;7.004;2023-03-24T08:37:14;10.60;99.90
52565;DHT22;38460;53.106;7.004;2023-03-24T08:39:40;10.70;99.90
52565;DHT22;38460;53.106;7.004;2023-03-24T08:42:06;10.80;99.90
52565;DHT22;38460;53.106;7.004;2023-03-24T08:44:31;10.80;99.90
52565;DHT22;38460;53.106;7.004;2023-03-24T08:46:59;10.80;99.90
52565;DHT22;38460;53.106;7.004;2023-03-24T08:49:25;10.80;99.90
52565;DHT22;38460;53.106;7.004;2023-03-24T08:51:51;10.90;99.90
52565;DHT22;38460;53.106;7.004;2023-03-24T08:54:17;10.90;99.90
52565;DHT22;38460;53.106;7.004;2023-03-24T08:56:42;10.90;99.90
52565;DHT22;38460;53.106;7.004;2023-03-24T08:59:08;10.90;99.90
52565;DHT22;38460;53.106;7.004;2023-03-24T09:01:34;11.00;99.90
52565;DHT22;38460;53.106;7.004;2023-03-24T09:04:00;11.00;99.90
52565;DHT22;38460;53.106;7.004;2023-03-24T09:06:26;11.00;99.90
52565;DHT22;38460;53.106;7.004;2023-03-24T09:08:53;11.00;99.90
52565;DHT22;38460;53.106;7.004;2023-03-24T09:11:20;11.10;99.90
52565;DHT22;38460;53.106;7.004;2023-03-24T09:13:47;11.20;99.90
52565;DHT22;38460;53.106;7.004;2023-03-24T09:16:13;11.30;99.90
52565;DHT22;38460;53.106;7.004;2023-03-24T09:18:40;11.30;99.90
52565;DHT22;38460;53.106;7.004;2023-03-24T09:21:06;11.40;99.90
52565;DHT22;38460;53.106;7.004;2023-03-24T09:23:32;11.40;99.90
52565;DHT22;38460;53.106;7.004;2023-03-24T09:25:58;11.40;99.90
52565;DHT22;38460;53.106;7.004;2023-03-24T09:28:24;11.30;99.90
52565;DHT22;38460;53.106;7.004;2023-03-24T09:31:04;11.20;99.90
52565;DHT22;38460;53.106;7.004;2023-03-24T09:33:30;11.10;99.90
52565;DHT22;38460;53.106;7.004;2023-03-24T09:35:58;11.10;99.90
52565;DHT22;38460;53.106;7.004;2023-03-24T09:38:25;11.10;99.90
52565;DHT22;38460;53.106;7.004;2023-03-24T09:40:56;11.20;99.90
52565;DHT22;38460;53.106;7.004;2023-03-24T09:43:37;11.30;99.90
52565;DHT22;38460;53.106;7.004;2023-03-24T09:46:44;11.40;99.90
52565;DHT22;38460;53.106;7.004;2023-03-24T09:49:01;11.60;99.90
52565;DHT22;38460;53.106;7.004;2023-03-24T09:51:31;11.70;99.90
52565;DHT22;38460;53.106;7.004;2023-03-24T09:54:17;11.80;99.90
52565;DHT22;38460;53.106;7.004;2023-03-24T09:56:48;12.00;99.90
52565;DHT22;38460;53.106;7.004;2023-03-24T09:59:35;12.10;99.90
52565;DHT22;38460;53.106;7.004;2023-03-24T10:02:13;12.20;99.90
52565;DHT22;38460;53.106;7.004;2023-03-24T10:04:39;12.30;99.90
52565;DHT22;38460;53.106;7.004;2023-03-24T10:07:28;12.40;99.90
52565;DHT22;38460;53.106;7.004;2023-03-24T10:09:58;12.50;99.90
52565;DHT22;38460;53.106;7.004;2023-03-24T10:12:38;12.70;99.90
52565;DHT22;38460;53.106;7.004;2023-03-24T10:17:58;12.90;99.90
52565;DHT22;38460;53.106;7.004;2023-03-24T10:20:51;13.00;99.90
52565;DHT22;38460;53.106;7.004;2023-03-24T10:23:24;13.10;99.90
52565;DHT22;38460;53.106;7.004;2023-03-24T10:28:51;13.30;99.90
52565;DHT22;38460;53.106;7.004;2023-03-24T10:31:24;13.40;99.90
52565;DHT22;38460;53.106;7.004;2023-03-24T10:33:51;13.60;99.90
52565;DHT22;38460;53.106;7.004;2023-03-24T10:36:19;13.70;99.90
52565;DHT22;38460;53.106;7.004;2023-03-24T10:38:45;13.80;99.90
52565;DHT22;38460;53.106;7.004;2023-03-24T10:41:21;13.60;99.90
52565;DHT22;38460;53.106;7.004;2023-03-24T10:43:49;13.60;99.90
52565;DHT22;38460;53.106;7.004;2023-03-24T10:46:20;13.50;99.90
52565;DHT22;38460;53.106;7.004;2023-03-24T10:48:52;13.60;99.90
52565;DHT22;38460;53.106;7.004;2023-03-24T10:51:30;13.50;99.90
52565;DHT22;38460;53.106;7.004;2023-03-24T10:54:20;13.50;99.90
52565;DHT22;38460;53.106;7.004;2023-03-24T10:59:35;13.80;99.90
52565;DHT22;38460;53.106;7.004;2023-03-24T11:04:33;14.00;99.90
52565;DHT22;38460;53.106;7.004;2023-03-24T11:07:12;14.00;99.90
52565;DHT22;38460;53.106;7.004;2023-03-24T11:09:46;14.10;99.90
52565;DHT22;38460;53.106;7.004;2023-03-24T11:12:26;14.10;99.90
52565;DHT22;38460;53.106;7.004;2023-03-24T11:15:01;14.20;99.90
52565;DHT22;38460;53.106;7.004;2023-03-24T11:17:27;14.30;99.90
52565;DHT22;38460;53.106;7.004;2023-03-24T11:19:55;14.40;99.90
52565;DHT22;38460;53.106;7.004;2023-03-24T11:22:22;14.40;99.90
52565;DHT22;38460;53.106;7.004;2023-03-24T11:24:54;14.40;99.90
52565;DHT22;38460;53.106;7.004;2023-03-24T11:27:21;14.30;99.90
52565;DHT22;38460;53.106;7.004;2023-03-24T11:29:53;14.30;99.90
52565;DHT22;38460;53.106;7.004;2023-03-24T11:32:26;14.20;99.90
52565;DHT22;38460;53.106;7.004;2023-03-24T11:35:15;14.20;99.90
52565;DHT22;38460;53.106;7.004;2023-03-24T11:37:45;14.30;99.90
52565;DHT22;38460;53.106;7.004;2023-03-24T11:42:43;14.60;99.90
52565;DHT22;38460;53.106;7.004;2023-03-24T11:48:09;15.20;99.90
52565;DHT22;38460;53.106;7.004;2023-03-24T11:50:37;15.40;99.90
52565;DHT22;38460;53.106;7.004;2023-03-24T11:56:05;15.80;99.90
52565;DHT22;38460;53.106;7.004;2023-03-24T11:58:47;16.00;99.90
52565;DHT22;38460;53.106;7.004;2023-03-24T12:09:12;16.20;99.90
52565;DHT22;38460;53.106;7.004;2023-03-24T12:17:40;16.20;99.90
52565;DHT22;38460;53.106;7.004;2023-03-24T12:28:43;15.50;99.90
52565;DHT22;38460;53.106;7.004;2023-03-24T12:31:55;15.30;99.90
52565;DHT22;38460;53.106;7.004;2023-03-24T12:37:16;14.90;99.90
52565;DHT22;38460;53.106;7.004;2023-03-24T12:42:39;14.70;99.90
52565;DHT22;38460;53.106;7.004;2023-03-24T12:48:18;14.60;99.90
52565;DHT22;38460;53.106;7.004;2023-03-24T12:50:55;14.70;99.90
52565;DHT22;38460;53.106;7.004;2023-03-24T12:56:17;14.90;99.90
52565;DHT22;38460;53.106;7.004;2023-03-24T13:01:27;14.80;99.90
52565;DHT22;38460;53.106;7.004;2023-03-24T13:03:59;14.90;99.90
52565;DHT22;38460;53.106;7.004;2023-03-24T13:06:36;14.80;99.90
52565;DHT22;38460;53.106;7.004;2023-03-24T13:09:41;14.80;99.90
52565;DHT22;38460;53.106;7.004;2023-03-24T13:12:22;15.10;99.90
52565;DHT22;38460;53.106;7.004;2023-03-24T13:20:16;15.60;99.90
52565;DHT22;38460;53.106;7.004;2023-03-24T13:22:44;15.70;99.90
52565;DHT22;38460;53.106;7.004;2023-03-24T13:25:26;15.80;99.90
52565;DHT22;38460;53.106;7.004;2023-03-24T13:27:59;15.80;99.90
52565;DHT22;38460;53.106;7.004;2023-03-24T13:30:38;15.90;99.90
52565;DHT22;38460;53.106;7.004;2023-03-24T13:33:12;15.90;99.90
52565;DHT22;38460;53.106;7.004;2023-03-24T13:38:39;15.70;99.90
52565;DHT22;38460;53.106;7.004;2023-03-24T13:41:16;15.60;99.90
52565;DHT22;38460;53.106;7.004;2023-03-24T13:44:06;15.60;99.90
52565;DHT22;38460;53.106;7.004;2023-03-24T13:46:35;15.60;99.90
52565;DHT22;38460;53.106;7.004;2023-03-24T13:49:05;15.60;99.90
52565;DHT22;38460;53.106;7.004;2023-03-24T13:51:35;15.50;99.90
52565;DHT22;38460;53.106;7.004;2023-03-24T13:54:06;15.50;99.90
52565;DHT22;38460;53.106;7.004;2023-03-24T13:56:44;15.50;99.90
52565;DHT22;38460;53.106;7.004;2023-03-24T13:59:26;15.50;99.90
52565;DHT22;38460;53.106;7.004;2023-03-24T14:02:16;15.50;99.90
52565;DHT22;38460;53.106;7.004;2023-03-24T14:05:06;15.40;99.90
52565;DHT22;38460;53.106;7.004;2023-03-24T14:12:53;15.40;99.90
52565;DHT22;38460;53.106;7.004;2023-03-24T14:15:21;15.40;99.90
52565;DHT22;38460;53.106;7.004;2023-03-24T14:17:53;15.30;99.90
52565;DHT22;38460;53.106;7.004;2023-03-24T14:20:27;15.30;99.90
52565;DHT22;38460;53.106;7.004;2023-03-24T14:22:53;15.10;99.90
52565;DHT22;38460;53.106;7.004;2023-03-24T14:25:25;15.10;99.90
52565;DHT22;38460;53.106;7.004;2023-03-24T14:27:54;15.10;99.90
52565;DHT22;38460;53.106;7.004;2023-03-24T14:30:30;15.00;99.90
52565;DHT22;38460;53.106;7.004;2023-03-24T14:32:59;15.00;99.90
52565;DHT22;38460;53.106;7.004;2023-03-24T14:35:40;15.00;99.90
52565;DHT22;38460;53.106;7.004;2023-03-24T14:40:44;14.90;99.90
52565;DHT22;38460;53.106;7.004;2023-03-24T14:43:30;14.90;99.90
52565;DHT22;38460;53.106;7.004;2023-03-24T14:46:34;14.80;99.90
52565;DHT22;38460;53.106;7.004;2023-03-24T14:49:03;14.80;99.90
52565;DHT22;38460;53.106;7.004;2023-03-24T14:56:52;14.70;99.90
52565;DHT22;38460;53.106;7.004;2023-03-24T15:02:22;14.70;99.90
52565;DHT22;38460;53.106;7.004;2023-03-24T15:10:40;14.70;99.90
52565;DHT22;38460;53.106;7.004;2023-03-24T15:15:50;14.50;99.90
52565;DHT22;38460;53.106;7.004;2023-03-24T15:18:16;14.40;99.90
52565;DHT22;38460;53.106;7.004;2023-03-24T15:20:44;14.40;99.90
52565;DHT22;38460;53.106;7.004;2023-03-24T15:23:17;14.50;99.90
52565;DHT22;38460;53.106;7.004;2023-03-24T15:25:44;14.50;99.90
52565;DHT22;38460;53.106;7.004;2023-03-24T15:28:27;14.50;99.90
52565;DHT22;38460;53.106;7.004;2023-03-24T15:30:54;14.50;99.90
52565;DHT22;38460;53.106;7.004;2023-03-24T15:33:21;14.50;99.90
52565;DHT22;38460;53.106;7.004;2023-03-24T15:35:54;14.30;99.90
52565;DHT22;38460;53.106;7.004;2023-03-24T15:38:27;14.00;99.90
52565;DHT22;38460;53.106;7.004;2023-03-24T15:41:08;14.20;99.90
52565;DHT22;38460;53.106;7.004;2023-03-24T15:46:30;14.10;99.90
52565;DHT22;38460;53.106;7.004;2023-03-24T15:48:58;14.10;99.90
52565;DHT22;38460;53.106;7.004;2023-03-24T15:51:51;14.10;99.90
52565;DHT22;38460;53.106;7.004;2023-03-24T15:54:23;14.00;99.90
52565;DHT22;38460;53.106;7.004;2023-03-24T15:57:19;14.00;99.90
52565;DHT22;38460;53.106;7.004;2023-03-24T16:02:46;14.00;99.90
52565;DHT22;38460;53.106;7.004;2023-03-24T16:05:23;14.00;99.90
52565;DHT22;38460;53.106;7.004;2023-03-24T16:08:07;13.90;99.90
52565;DHT22;38460;53.106;7.004;2023-03-24T16:10:57;13.90;99.90
52565;DHT22;38460;53.106;7.004;2023-03-24T16:13:23;13.80;99.90
52565;DHT22;38460;53.106;7.004;2023-03-24T16:18:37;13.70;99.90
52565;DHT22;38460;53.106;7.004;2023-03-24T16:23:38;13.50;99.90
52565;DHT22;38460;53.106;7.004;2023-03-24T16:26:04;13.40;99.90
52565;DHT22;38460;53.106;7.004;2023-03-24T16:28:30;13.40;99.90
52565;DHT22;38460;53.106;7.004;2023-03-24T16:31:03;13.30;99.90
52565;DHT22;38460;53.106;7.004;2023-03-24T16:33:30;13.30;99.90
52565;DHT22;38460;53.106;7.004;2023-03-24T16:35:57;13.20;99.90
52565;DHT22;38460;53.106;7.004;2023-03-24T16:38:24;13.20;99.90
52565;DHT22;38460;53.106;7.004;2023-03-24T16:40:52;13.10;99.90
52565;DHT22;38460;53.106;7.004;2023-03-24T16:43:19;13.10;99.90
52565;DHT22;38460;53.106;7.004;2023-03-24T16:45:46;13.00;99.90
52565;DHT22;38460;53.106;7.004;2023-03-24T16:48:12;13.00;99.90
52565;DHT22;38460;53.106;7.004;2023-03-24T16:50:40;13.00;99.90
52565;DHT22;38460;53.106;7.004;2023-03-24T16:53:07;12.90;99.90
52565;DHT22;38460;53.106;7.004;2023-03-24T16:55:38;12.90;99.90
52565;DHT22;38460;53.106;7.004;2023-03-24T16:58:05;12.90;99.90
52565;DHT22;38460;53.106;7.004;2023-03-24T17:00:31;12.90;99.90
52565;DHT22;38460;53.106;7.004;2023-03-24T17:02:58;12.80;99.90
52565;DHT22;38460;53.106;7.004;2023-03-24T17:05:26;12.80;99.90
52565;DHT22;38460;53.106;7.004;2023-03-24T17:07:56;12.80;99.90
52565;DHT22;38460;53.106;7.004;2023-03-24T17:10:23;12.70;99.90
52565;DHT22;38460;53.106;7.004;2023-03-24T17:12:53;12.60;99.90
52565;DHT22;38460;53.106;7.004;2023-03-24T17:15:24;12.50;99.90
52565;DHT22;38460;53.106;7.004;2023-03-24T17:17:50;12.50;99.90
52565;DHT22;38460;53.106;7.004;2023-03-24T17:20:17;12.40;99.90
52565;DHT22;38460;53.106;7.004;2023-03-24T17:22:44;12.30;99.90
52565;DHT22;38460;53.106;7.004;2023-03-24T17:25:12;12.20;99.90
52565;DHT22;38460;53.106;7.004;2023-03-24T17:27:38;12.10;99.90
52565;DHT22;38460;53.106;7.004;2023-03-24T17:30:05;12.10;99.90
52565;DHT22;38460;53.106;7.004;2023-03-24T17:32:32;11.90;99.90
52565;DHT22;38460;53.106;7.004;2023-03-24T17:34:59;11.90;99.90
52565;DHT22;38460;53.106;7.004;2023-03-24T17:37:27;11.80;99.90
52565;DHT22;38460;53.106;7.004;2023-03-24T17:39:54;11.80;99.90
52565;DHT22;38460;53.106;7.004;2023-03-24T17:42:22;11.70;99.90
52565;DHT22;38460;53.106;7.004;2023-03-24T17:44:49;11.70;99.90
52565;DHT22;38460;53.106;7.004;2023-03-24T17:47:15;11.60;99.90
52565;DHT22;38460;53.106;7.004;2023-03-24T17:49:41;11.50;99.90
52565;DHT22;38460;53.106;7.004;2023-03-24T17:52:07;11.40;99.90
52565;DHT22;38460;53.106;7.004;2023-03-24T17:54:32;11.40;99.90
52565;DHT22;38460;53.106;7.004;2023-03-24T17:56:58;11.30;99.90
52565;DHT22;38460;53.106;7.004;2023-03-24T17:59:24;11.30;99.90
52565;DHT22;38460;53.106;7.004;2023-03-24T18:01:50;11.30;99.90
52565;DHT22;38460;53.106;7.004;2023-03-24T18:04:16;11.30;99.90
52565;DHT22;38460;53.106;7.004;2023-03-24T18:06:42;11.20;99.90
52565;DHT22;38460;53.106;7.004;2023-03-24T18:09:08;11.20;99.90
52565;DHT22;38460;53.106;7.004;2023-03-24T18:11:34;11.10;99.90
52565;DHT22;38460;53.106;7.004;2023-03-24T18:14:01;11.10;99.90
52565;DHT22;38460;53.106;7.004;2023-03-24T18:16:27;11.10;99.90
52565;DHT22;38460;53.106;7.004;2023-03-24T18:18:56;11.10;99.90
52565;DHT22;38460;53.106;7.004;2023-03-24T18:21:22;11.10;99.90
52565;DHT22;38460;53.106;7.004;2023-03-24T18:23:48;11.10;99.90
52565;DHT22;38460;53.106;7.004;2023-03-24T18:26:16;11.00;99.90
52565;DHT22;38460;53.106;7.004;2023-03-24T18:28:42;11.00;99.90
52565;DHT22;38460;53.106;7.004;2023-03-24T18:31:20;10.90;99.90
52565;DHT22;38460;53.106;7.004;2023-03-24T18:33:46;11.00;99.90